sensor_id;sensor_type;location;lat;lon;timestamp;P1;durP1;ratioP1;P2;durP2;ratioP2
19812;SDS011;10066;48.108;11.448;2023-02-15T00:02:01;41.03;;;11.90;;
19812;SDS011;10066;48.108;11.448;2023-02-15T00:04:28;90.20;;;12.30;;
19812;SDS011;10066;48.108;11.448;2023-02-15T00:07:11;131.87;;;12.40;;
19812;SDS011;10066;48.108;11.448;2023-02-15T00:09:39;57.07;;;11.07;;
19812;SDS011;10066;48.108;11.448;2023-02-15T00:12:07;53.17;;;11.20;;
19812;SDS011;10066;48.108;11.448;2023-02-15T00:14:35;52.43;;;9.53;;
19812;SDS011;10066;48.108;11.448;2023-02-15T00:17:05;47.90;;;11.47;;
19812;SDS011;10066;48.108;11.448;2023-02-15T00:19:32;73.63;;;9.40;;
19812;SDS011;10066;48.108;11.448;2023-02-15T00:21:59;69.57;;;11.07;;
19812;SDS011;10066;48.108;11.448;2023-02-15T00:24:26;85.07;;;11.70;;
19812;SDS011;10066;48.108;11.448;2023-02-15T00:26:53;45.33;;;11.80;;
19812;SDS011;10066;48.108;11.448;2023-02-15T00:29:21;61.80;;;11.40;;
19812;SDS011;10066;48.108;11.448;2023-02-15T00:31:48;38.77;;;12.30;;
19812;SDS011;10066;48.108;11.448;2023-02-15T00:34:16;51.67;;;12.23;;
19812;SDS011;10066;48.108;11.448;2023-02-15T00:36:45;62.57;;;12.47;;
19812;SDS011;10066;48.108;11.448;2023-02-15T00:39:12;30.17;;;11.00;;
19812;SDS011;10066;48.108;11.448;2023-02-15T00:41:39;35.53;;;10.30;;
19812;SDS011;10066;48.108;11.448;2023-02-15T00:44:06;41.23;;;11.57;;
19812;SDS011;10066;48.108;11.448;2023-02-15T00:46:35;46.33;;;12.03;;
19812;SDS011;10066;48.108;11.448;2023-02-15T00:49:03;42.67;;;10.57;;
19812;SDS011;10066;48.108;11.448;2023-02-15T00:51:31;108.77;;;11.63;;
19812;SDS011;10066;48.108;11.448;2023-02-15T00:53:58;34.40;;;10.57;;
19812;SDS011;10066;48.108;11.448;2023-02-15T00:56:25;41.00;;;10.03;;
19812;SDS011;10066;48.108;11.448;2023-02-15T00:58:53;37.20;;;9.47;;
19812;SDS011;10066;48.108;11.448;2023-02-15T01:01:20;51.83;;;9.33;;
19812;SDS011;10066;48.108;11.448;2023-02-15T01:03:49;42.20;;;9.37;;
19812;SDS011;10066;48.108;11.448;2023-02-15T01:06:16;70.93;;;11.00;;
19812;SDS011;10066;48.108;11.448;2023-02-15T01:08:44;34.07;;;9.00;;
19812;SDS011;10066;48.108;11.448;2023-02-15T01:11:12;48.93;;;10.03;;
19812;SDS011;10066;48.108;11.448;2023-02-15T01:13:46;65.60;;;8.93;;
19812;SDS011;10066;48.108;11.448;2023-02-15T01:16:14;82.50;;;10.17;;
19812;SDS011;10066;48.108;11.448;2023-02-15T01:18:41;60.80;;;11.57;;
19812;SDS011;10066;48.108;11.448;2023-02-15T01:21:13;52.27;;;10.83;;
19812;SDS011;10066;48.108;11.448;2023-02-15T01:23:42;39.33;;;10.10;;
19812;SDS011;10066;48.108;11.448;2023-02-15T01:26:09;38.43;;;8.73;;
19812;SDS011;10066;48.108;11.448;2023-02-15T01:28:36;19.80;;;9.20;;
19812;SDS011;10066;48.108;11.448;2023-02-15T01:31:04;46.73;;;10.93;;
19812;SDS011;10066;48.108;11.448;2023-02-15T01:33:33;65.33;;;10.70;;
19812;SDS011;10066;48.108;11.448;2023-02-15T01:36:01;24.47;;;9.87;;
19812;SDS011;10066;48.108;11.448;2023-02-15T01:38:30;35.83;;;10.83;;
19812;SDS011;10066;48.108;11.448;2023-02-15T01:41:01;49.97;;;10.83;;
19812;SDS011;10066;48.108;11.448;2023-02-15T01:43:42;56.03;;;11.33;;
19812;SDS011;10066;48.108;11.448;2023-02-15T01:46:10;81.53;;;11.40;;
19812;SDS011;10066;48.108;11.448;2023-02-15T01:48:40;72.83;;;10.53;;
19812;SDS011;10066;48.108;11.448;2023-02-15T01:51:11;29.43;;;10.37;;
19812;SDS011;10066;48.108;11.448;2023-02-15T01:53:41;44.40;;;8.83;;
19812;SDS011;10066;48.108;11.448;2023-02-15T01:56:12;36.90;;;10.27;;
19812;SDS011;10066;48.108;11.448;2023-02-15T01:58:43;35.90;;;10.10;;
19812;SDS011;10066;48.108;11.448;2023-02-15T02:01:12;82.57;;;11.00;;
19812;SDS011;10066;48.108;11.448;2023-02-15T02:03:41;34.53;;;10.77;;
19812;SDS011;10066;48.108;11.448;2023-02-15T02:06:15;24.50;;;11.03;;
19812;SDS011;10066;48.108;11.448;2023-02-15T02:08:43;36.13;;;10.70;;
19812;SDS011;10066;48.108;11.448;2023-02-15T02:11:11;18.73;;;10.37;;
19812;SDS011;10066;48.108;11.448;2023-02-15T02:13:39;44.67;;;11.30;;
19812;SDS011;10066;48.108;11.448;2023-02-15T02:16:08;18.67;;;10.77;;
19812;SDS011;10066;48.108;11.448;2023-02-15T02:18:41;31.63;;;11.03;;
19812;SDS011;10066;48.108;11.448;2023-02-15T02:24:36;34.07;;;9.93;;
19812;SDS011;10066;48.108;11.448;2023-02-15T02:27:32;22.80;;;9.97;;
19812;SDS011;10066;48.108;11.448;2023-02-15T02:30:13;39.27;;;10.77;;
19812;SDS011;10066;48.108;11.448;2023-02-15T02:33:03;17.27;;;9.77;;
19812;SDS011;10066;48.108;11.448;2023-02-15T02:35:57;24.10;;;9.67;;
19812;SDS011;10066;48.108;11.448;2023-02-15T02:38:32;28.53;;;11.70;;
19812;SDS011;10066;48.108;11.448;2023-02-15T02:41:08;36.27;;;11.83;;
19812;SDS011;10066;48.108;11.448;2023-02-15T02:43:44;37.20;;;12.40;;
19812;SDS011;10066;48.108;11.448;2023-02-15T02:46:20;18.27;;;12.33;;
19812;SDS011;10066;48.108;11.448;2023-02-15T02:48:52;31.63;;;12.13;;
19812;SDS011;10066;48.108;11.448;2023-02-15T02:51:20;35.70;;;11.93;;
19812;SDS011;10066;48.108;11.448;2023-02-15T02:53:48;24.27;;;11.27;;
19812;SDS011;10066;48.108;11.448;2023-02-15T02:56:19;31.97;;;11.77;;
19812;SDS011;10066;48.108;11.448;2023-02-15T02:58:50;19.93;;;11.43;;
19812;SDS011;10066;48.108;11.448;2023-02-15T03:01:24;43.70;;;11.53;;
19812;SDS011;10066;48.108;11.448;2023-02-15T03:03:56;25.57;;;10.27;;
19812;SDS011;10066;48.108;11.448;2023-02-15T03:06:28;29.33;;;10.87;;
19812;SDS011;10066;48.108;11.448;2023-02-15T03:09:03;14.77;;;10.50;;
19812;SDS011;10066;48.108;11.448;2023-02-15T03:11:39;15.93;;;10.50;;
19812;SDS011;10066;48.108;11.448;2023-02-15T03:14:07;27.07;;;10.67;;
19812;SDS011;10066;48.108;11.448;2023-02-15T03:16:35;21.97;;;10.10;;
19812;SDS011;10066;48.108;11.448;2023-02-15T03:19:07;38.70;;;10.90;;
19812;SDS011;10066;48.108;11.448;2023-02-15T03:21:39;43.53;;;9.97;;
19812;SDS011;10066;48.108;11.448;2023-02-15T03:24:14;32.13;;;9.43;;
19812;SDS011;10066;48.108;11.448;2023-02-15T03:26:48;26.80;;;10.60;;
19812;SDS011;10066;48.108;11.448;2023-02-15T03:29:18;26.93;;;9.70;;
19812;SDS011;10066;48.108;11.448;2023-02-15T03:31:49;18.40;;;9.87;;
19812;SDS011;10066;48.108;11.448;2023-02-15T03:34:22;21.00;;;9.30;;
19812;SDS011;10066;48.108;11.448;2023-02-15T03:36:50;29.73;;;8.80;;
19812;SDS011;10066;48.108;11.448;2023-02-15T03:39:22;29.93;;;9.30;;
19812;SDS011;10066;48.108;11.448;2023-02-15T03:41:55;26.03;;;8.83;;
19812;SDS011;10066;48.108;11.448;2023-02-15T03:44:26;29.13;;;10.17;;
19812;SDS011;10066;48.108;11.448;2023-02-15T03:46:57;22.47;;;10.03;;
19812;SDS011;10066;48.108;11.448;2023-02-15T03:49:30;30.77;;;10.17;;
19812;SDS011;10066;48.108;11.448;2023-02-15T03:52:04;21.37;;;9.67;;
19812;SDS011;10066;48.108;11.448;2023-02-15T03:54:36;38.63;;;10.33;;
19812;SDS011;10066;48.108;11.448;2023-02-15T03:57:13;36.83;;;9.33;;
19812;SDS011;10066;48.108;11.448;2023-02-15T04:00:02;37.70;;;10.37;;
19812;SDS011;10066;48.108;11.448;2023-02-15T04:02:52;24.70;;;8.90;;
19812;SDS011;10066;48.108;11.448;2023-02-15T04:05:32;17.97;;;9.73;;
19812;SDS011;10066;48.108;11.448;2023-02-15T04:08:02;38.70;;;10.87;;
19812;SDS011;10066;48.108;11.448;2023-02-15T04:10:30;56.43;;;10.23;;
19812;SDS011;10066;48.108;11.448;2023-02-15T04:13:14;26.60;;;9.83;;
19812;SDS011;10066;48.108;11.448;2023-02-15T04:15:41;17.53;;;9.83;;
19812;SDS011;10066;48.108;11.448;2023-02-15T04:18:25;49.70;;;10.30;;
19812;SDS011;10066;48.108;11.448;2023-02-15T04:21:11;31.57;;;9.73;;
19812;SDS011;10066;48.108;11.448;2023-02-15T04:23:55;22.10;;;8.70;;
19812;SDS011;10066;48.108;11.448;2023-02-15T04:26:39;59.67;;;10.50;;
19812;SDS011;10066;48.108;11.448;2023-02-15T04:29:06;27.33;;;9.97;;
19812;SDS011;10066;48.108;11.448;2023-02-15T04:31:33;28.53;;;9.80;;
19812;SDS011;10066;48.108;11.448;2023-02-15T04:34:00;19.30;;;10.13;;
19812;SDS011;10066;48.108;11.448;2023-02-15T04:36:28;25.00;;;10.57;;
19812;SDS011;10066;48.108;11.448;2023-02-15T04:38:55;31.33;;;10.40;;
19812;SDS011;10066;48.108;11.448;2023-02-15T04:41:22;23.73;;;9.97;;
19812;SDS011;10066;48.108;11.448;2023-02-15T04:43:49;27.67;;;10.50;;
19812;SDS011;10066;48.108;11.448;2023-02-15T04:46:16;48.10;;;11.07;;
19812;SDS011;10066;48.108;11.448;2023-02-15T04:48:43;37.90;;;10.40;;
19812;SDS011;10066;48.108;11.448;2023-02-15T04:51:10;23.17;;;10.13;;
19812;SDS011;10066;48.108;11.448;2023-02-15T04:53:39;19.17;;;10.77;;
19812;SDS011;10066;48.108;11.448;2023-02-15T04:56:06;49.57;;;11.07;;
19812;SDS011;10066;48.108;11.448;2023-02-15T04:58:36;20.83;;;9.63;;
19812;SDS011;10066;48.108;11.448;2023-02-15T05:01:06;22.23;;;9.83;;
19812;SDS011;10066;48.108;11.448;2023-02-15T05:03:33;41.57;;;10.53;;
19812;SDS011;10066;48.108;11.448;2023-02-15T05:06:00;64.93;;;11.10;;
19812;SDS011;10066;48.108;11.448;2023-02-15T05:08:27;32.20;;;9.80;;
19812;SDS011;10066;48.108;11.448;2023-02-15T05:10:56;59.73;;;10.37;;
19812;SDS011;10066;48.108;11.448;2023-02-15T05:13:23;26.77;;;10.60;;
19812;SDS011;10066;48.108;11.448;2023-02-15T05:15:53;22.33;;;9.13;;
19812;SDS011;10066;48.108;11.448;2023-02-15T05:18:22;27.17;;;9.10;;
19812;SDS011;10066;48.108;11.448;2023-02-15T05:20:49;24.37;;;9.83;;
19812;SDS011;10066;48.108;11.448;2023-02-15T05:23:16;39.43;;;9.83;;
19812;SDS011;10066;48.108;11.448;2023-02-15T05:25:46;37.73;;;9.53;;
19812;SDS011;10066;48.108;11.448;2023-02-15T05:28:32;39.53;;;10.20;;
19812;SDS011;10066;48.108;11.448;2023-02-15T05:31:02;59.20;;;10.33;;
19812;SDS011;10066;48.108;11.448;2023-02-15T05:33:32;16.67;;;8.50;;
19812;SDS011;10066;48.108;11.448;2023-02-15T05:35:59;63.47;;;9.47;;
19812;SDS011;10066;48.108;11.448;2023-02-15T05:38:26;61.57;;;9.83;;
19812;SDS011;10066;48.108;11.448;2023-02-15T05:40:53;29.23;;;9.57;;
19812;SDS011;10066;48.108;11.448;2023-02-15T05:43:21;21.13;;;8.80;;
19812;SDS011;10066;48.108;11.448;2023-02-15T05:45:50;14.40;;;8.70;;
19812;SDS011;10066;48.108;11.448;2023-02-15T05:48:18;16.30;;;8.83;;
19812;SDS011;10066;48.108;11.448;2023-02-15T05:50:55;20.00;;;9.37;;
19812;SDS011;10066;48.108;11.448;2023-02-15T05:53:23;29.77;;;9.90;;
19812;SDS011;10066;48.108;11.448;2023-02-15T05:55:50;25.07;;;9.93;;
19812;SDS011;10066;48.108;11.448;2023-02-15T05:58:17;59.57;;;9.90;;
19812;SDS011;10066;48.108;11.448;2023-02-15T06:00:44;69.70;;;9.70;;
19812;SDS011;10066;48.108;11.448;2023-02-15T06:03:12;52.90;;;9.10;;
19812;SDS011;10066;48.108;11.448;2023-02-15T06:05:39;76.13;;;9.00;;
19812;SDS011;10066;48.108;11.448;2023-02-15T06:08:06;21.53;;;8.93;;
19812;SDS011;10066;48.108;11.448;2023-02-15T06:10:33;27.83;;;9.47;;
19812;SDS011;10066;48.108;11.448;2023-02-15T06:13:00;12.87;;;8.20;;
19812;SDS011;10066;48.108;11.448;2023-02-15T06:15:27;15.63;;;9.60;;
19812;SDS011;10066;48.108;11.448;2023-02-15T06:17:53;35.63;;;10.63;;
19812;SDS011;10066;48.108;11.448;2023-02-15T06:20:22;32.03;;;9.67;;
19812;SDS011;10066;48.108;11.448;2023-02-15T06:22:49;39.60;;;8.20;;
19812;SDS011;10066;48.108;11.448;2023-02-15T06:25:16;16.13;;;9.50;;
19812;SDS011;10066;48.108;11.448;2023-02-15T06:27:43;68.63;;;10.00;;
19812;SDS011;10066;48.108;11.448;2023-02-15T06:30:11;19.23;;;9.83;;
19812;SDS011;10066;48.108;11.448;2023-02-15T06:32:38;19.93;;;9.60;;
19812;SDS011;10066;48.108;11.448;2023-02-15T06:35:06;22.53;;;8.73;;
19812;SDS011;10066;48.108;11.448;2023-02-15T06:37:35;19.20;;;8.83;;
19812;SDS011;10066;48.108;11.448;2023-02-15T06:40:06;58.57;;;10.97;;
19812;SDS011;10066;48.108;11.448;2023-02-15T06:42:37;21.37;;;8.33;;
19812;SDS011;10066;48.108;11.448;2023-02-15T06:45:05;14.37;;;8.27;;
19812;SDS011;10066;48.108;11.448;2023-02-15T06:47:32;30.73;;;8.73;;
19812;SDS011;10066;48.108;11.448;2023-02-15T06:49:59;47.70;;;9.83;;
19812;SDS011;10066;48.108;11.448;2023-02-15T06:52:26;95.10;;;13.90;;
19812;SDS011;10066;48.108;11.448;2023-02-15T06:54:54;33.33;;;9.80;;
19812;SDS011;10066;48.108;11.448;2023-02-15T06:57:21;25.23;;;8.83;;
19812;SDS011;10066;48.108;11.448;2023-02-15T06:59:48;53.93;;;9.27;;
19812;SDS011;10066;48.108;11.448;2023-02-15T07:02:15;46.43;;;9.90;;
19812;SDS011;10066;48.108;11.448;2023-02-15T07:04:42;22.50;;;10.00;;
19812;SDS011;10066;48.108;11.448;2023-02-15T07:07:09;23.97;;;9.73;;
19812;SDS011;10066;48.108;11.448;2023-02-15T07:09:37;17.03;;;9.30;;
19812;SDS011;10066;48.108;11.448;2023-02-15T07:12:06;26.77;;;11.00;;
19812;SDS011;10066;48.108;11.448;2023-02-15T07:14:50;15.03;;;10.27;;
19812;SDS011;10066;48.108;11.448;2023-02-15T07:17:18;17.70;;;9.60;;
19812;SDS011;10066;48.108;11.448;2023-02-15T07:19:44;14.83;;;9.40;;
19812;SDS011;10066;48.108;11.448;2023-02-15T07:22:15;14.43;;;10.03;;
19812;SDS011;10066;48.108;11.448;2023-02-15T07:24:42;14.33;;;9.83;;
19812;SDS011;10066;48.108;11.448;2023-02-15T07:27:10;15.27;;;10.07;;
19812;SDS011;10066;48.108;11.448;2023-02-15T07:29:37;13.47;;;9.43;;
19812;SDS011;10066;48.108;11.448;2023-02-15T07:32:04;13.90;;;9.10;;
19812;SDS011;10066;48.108;11.448;2023-02-15T07:34:30;15.20;;;9.33;;
19812;SDS011;10066;48.108;11.448;2023-02-15T07:36:57;14.60;;;9.40;;
19812;SDS011;10066;48.108;11.448;2023-02-15T07:39:24;15.97;;;9.77;;
19812;SDS011;10066;48.108;11.448;2023-02-15T07:41:51;16.13;;;9.80;;
19812;SDS011;10066;48.108;11.448;2023-02-15T07:44:20;15.07;;;9.57;;
19812;SDS011;10066;48.108;11.448;2023-02-15T07:46:46;12.77;;;9.43;;
19812;SDS011;10066;48.108;11.448;2023-02-15T07:49:13;16.33;;;10.20;;
19812;SDS011;10066;48.108;11.448;2023-02-15T07:51:40;16.40;;;9.50;;
19812;SDS011;10066;48.108;11.448;2023-02-15T07:54:07;21.33;;;10.13;;
19812;SDS011;10066;48.108;11.448;2023-02-15T07:56:34;14.77;;;9.23;;
19812;SDS011;10066;48.108;11.448;2023-02-15T07:59:01;22.83;;;9.80;;
19812;SDS011;10066;48.108;11.448;2023-02-15T08:01:32;15.77;;;10.23;;
19812;SDS011;10066;48.108;11.448;2023-02-15T08:04:01;14.40;;;10.27;;
19812;SDS011;10066;48.108;11.448;2023-02-15T08:06:29;24.73;;;10.83;;
19812;SDS011;10066;48.108;11.448;2023-02-15T08:08:57;15.07;;;10.13;;
19812;SDS011;10066;48.108;11.448;2023-02-15T08:11:25;19.03;;;11.30;;
19812;SDS011;10066;48.108;11.448;2023-02-15T08:14:02;18.43;;;11.03;;
19812;SDS011;10066;48.108;11.448;2023-02-15T08:16:34;15.30;;;10.47;;
19812;SDS011;10066;48.108;11.448;2023-02-15T08:19:03;17.67;;;10.53;;
19812;SDS011;10066;48.108;11.448;2023-02-15T08:21:33;16.17;;;11.40;;
19812;SDS011;10066;48.108;11.448;2023-02-15T08:24:01;17.17;;;10.70;;
19812;SDS011;10066;48.108;11.448;2023-02-15T08:26:28;14.03;;;10.50;;
19812;SDS011;10066;48.108;11.448;2023-02-15T08:28:56;14.77;;;10.33;;
19812;SDS011;10066;48.108;11.448;2023-02-15T08:31:23;18.73;;;11.57;;
19812;SDS011;10066;48.108;11.448;2023-02-15T08:33:53;15.30;;;10.67;;
19812;SDS011;10066;48.108;11.448;2023-02-15T08:36:21;15.40;;;10.93;;
19812;SDS011;10066;48.108;11.448;2023-02-15T08:38:51;15.90;;;11.23;;
19812;SDS011;10066;48.108;11.448;2023-02-15T08:41:18;16.03;;;11.17;;
19812;SDS011;10066;48.108;11.448;2023-02-15T08:43:47;18.33;;;11.93;;
19812;SDS011;10066;48.108;11.448;2023-02-15T08:46:16;17.27;;;11.83;;
19812;SDS011;10066;48.108;11.448;2023-02-15T08:48:44;15.40;;;11.30;;
19812;SDS011;10066;48.108;11.448;2023-02-15T08:51:14;17.47;;;11.70;;
19812;SDS011;10066;48.108;11.448;2023-02-15T08:53:43;16.20;;;11.37;;
19812;SDS011;10066;48.108;11.448;2023-02-15T08:56:14;16.00;;;11.30;;
19812;SDS011;10066;48.108;11.448;2023-02-15T08:58:45;16.63;;;11.53;;
19812;SDS011;10066;48.108;11.448;2023-02-15T09:01:13;14.97;;;10.57;;
19812;SDS011;10066;48.108;11.448;2023-02-15T09:03:45;14.83;;;10.93;;
19812;SDS011;10066;48.108;11.448;2023-02-15T09:06:14;15.90;;;10.67;;
19812;SDS011;10066;48.108;11.448;2023-02-15T09:08:42;16.53;;;12.00;;
19812;SDS011;10066;48.108;11.448;2023-02-15T09:11:10;15.60;;;10.90;;
19812;SDS011;10066;48.108;11.448;2023-02-15T09:13:47;19.07;;;11.77;;
19812;SDS011;10066;48.108;11.448;2023-02-15T09:16:14;17.07;;;12.37;;
19812;SDS011;10066;48.108;11.448;2023-02-15T09:18:42;16.60;;;11.80;;
19812;SDS011;10066;48.108;11.448;2023-02-15T09:21:10;14.73;;;11.60;;
19812;SDS011;10066;48.108;11.448;2023-02-15T09:23:40;15.37;;;11.87;;
19812;SDS011;10066;48.108;11.448;2023-02-15T09:26:09;16.57;;;11.30;;
19812;SDS011;10066;48.108;11.448;2023-02-15T09:28:37;18.27;;;12.00;;
19812;SDS011;10066;48.108;11.448;2023-02-15T09:31:09;17.23;;;12.53;;
19812;SDS011;10066;48.108;11.448;2023-02-15T09:33:37;19.20;;;12.03;;
19812;SDS011;10066;48.108;11.448;2023-02-15T09:36:05;18.27;;;11.43;;
19812;SDS011;10066;48.108;11.448;2023-02-15T09:38:42;19.53;;;12.20;;
19812;SDS011;10066;48.108;11.448;2023-02-15T09:41:23;18.00;;;11.47;;
19812;SDS011;10066;48.108;11.448;2023-02-15T09:44:15;16.97;;;12.03;;
19812;SDS011;10066;48.108;11.448;2023-02-15T09:46:58;18.07;;;12.37;;
19812;SDS011;10066;48.108;11.448;2023-02-15T09:49:40;18.73;;;12.33;;
19812;SDS011;10066;48.108;11.448;2023-02-15T09:55:07;17.63;;;11.70;;
19812;SDS011;10066;48.108;11.448;2023-02-15T09:57:48;15.57;;;11.20;;
19812;SDS011;10066;48.108;11.448;2023-02-15T10:00:22;15.23;;;10.70;;
19812;SDS011;10066;48.108;11.448;2023-02-15T10:03:03;19.97;;;11.43;;
19812;SDS011;10066;48.108;11.448;2023-02-15T10:05:42;17.97;;;11.30;;
19812;SDS011;10066;48.108;11.448;2023-02-15T10:08:30;15.43;;;10.40;;
19812;SDS011;10066;48.108;11.448;2023-02-15T10:11:10;15.63;;;10.13;;
19812;SDS011;10066;48.108;11.448;2023-02-15T10:14:02;14.90;;;10.47;;
19812;SDS011;10066;48.108;11.448;2023-02-15T10:16:49;13.77;;;9.83;;
19812;SDS011;10066;48.108;11.448;2023-02-15T10:19:24;16.30;;;10.83;;
19812;SDS011;10066;48.108;11.448;2023-02-15T10:22:02;14.27;;;9.63;;
19812;SDS011;10066;48.108;11.448;2023-02-15T10:24:39;13.53;;;9.57;;
19812;SDS011;10066;48.108;11.448;2023-02-15T10:27:30;13.43;;;9.73;;
19812;SDS011;10066;48.108;11.448;2023-02-15T10:30:02;17.53;;;10.73;;
19812;SDS011;10066;48.108;11.448;2023-02-15T10:32:37;12.33;;;9.47;;
19812;SDS011;10066;48.108;11.448;2023-02-15T10:35:11;18.13;;;9.87;;
19812;SDS011;10066;48.108;11.448;2023-02-15T10:37:49;15.67;;;10.27;;
19812;SDS011;10066;48.108;11.448;2023-02-15T10:40:28;14.80;;;9.90;;
19812;SDS011;10066;48.108;11.448;2023-02-15T10:46:02;14.10;;;10.03;;
19812;SDS011;10066;48.108;11.448;2023-02-15T10:51:40;14.50;;;9.37;;
19812;SDS011;10066;48.108;11.448;2023-02-15T10:54:21;19.70;;;10.40;;
19812;SDS011;10066;48.108;11.448;2023-02-15T10:56:58;12.43;;;9.90;;
19812;SDS011;10066;48.108;11.448;2023-02-15T10:59:36;14.27;;;9.20;;
19812;SDS011;10066;48.108;11.448;2023-02-15T11:02:17;13.40;;;9.27;;
19812;SDS011;10066;48.108;11.448;2023-02-15T11:04:53;16.03;;;10.20;;
19812;SDS011;10066;48.108;11.448;2023-02-15T11:07:25;13.37;;;9.43;;
19812;SDS011;10066;48.108;11.448;2023-02-15T11:09:58;15.33;;;10.73;;
19812;SDS011;10066;48.108;11.448;2023-02-15T11:12:31;21.27;;;11.53;;
19812;SDS011;10066;48.108;11.448;2023-02-15T11:15:02;15.07;;;9.80;;
19812;SDS011;10066;48.108;11.448;2023-02-15T11:17:38;14.30;;;9.97;;
19812;SDS011;10066;48.108;11.448;2023-02-15T11:20:09;15.37;;;10.10;;
19812;SDS011;10066;48.108;11.448;2023-02-15T11:22:46;16.93;;;10.43;;
19812;SDS011;10066;48.108;11.448;2023-02-15T11:25:17;16.27;;;9.97;;
19812;SDS011;10066;48.108;11.448;2023-02-15T11:27:47;13.90;;;9.20;;
19812;SDS011;10066;48.108;11.448;2023-02-15T11:30:19;16.87;;;9.73;;
19812;SDS011;10066;48.108;11.448;2023-02-15T11:32:48;13.07;;;9.63;;
19812;SDS011;10066;48.108;11.448;2023-02-15T11:35:20;11.93;;;9.20;;
19812;SDS011;10066;48.108;11.448;2023-02-15T11:37:54;16.00;;;9.53;;
19812;SDS011;10066;48.108;11.448;2023-02-15T11:40:26;14.30;;;9.33;;
19812;SDS011;10066;48.108;11.448;2023-02-15T11:42:56;16.63;;;9.87;;
19812;SDS011;10066;48.108;11.448;2023-02-15T11:45:29;11.83;;;8.60;;
19812;SDS011;10066;48.108;11.448;2023-02-15T11:47:58;14.43;;;10.13;;
19812;SDS011;10066;48.108;11.448;2023-02-15T11:50:26;14.57;;;9.93;;
19812;SDS011;10066;48.108;11.448;2023-02-15T11:52:56;13.17;;;9.60;;
19812;SDS011;10066;48.108;11.448;2023-02-15T11:55:27;18.30;;;8.90;;
19812;SDS011;10066;48.108;11.448;2023-02-15T11:57:56;14.37;;;9.67;;
19812;SDS011;10066;48.108;11.448;2023-02-15T12:00:34;17.60;;;10.20;;
19812;SDS011;10066;48.108;11.448;2023-02-15T12:03:07;14.00;;;10.07;;
19812;SDS011;10066;48.108;11.448;2023-02-15T12:05:40;19.47;;;10.93;;
19812;SDS011;10066;48.108;11.448;2023-02-15T12:08:12;14.87;;;9.33;;
19812;SDS011;10066;48.108;11.448;2023-02-15T12:10:43;16.43;;;9.73;;
19812;SDS011;10066;48.108;11.448;2023-02-15T12:13:14;16.50;;;10.03;;
19812;SDS011;10066;48.108;11.448;2023-02-15T12:15:44;19.03;;;10.00;;
19812;SDS011;10066;48.108;11.448;2023-02-15T12:18:17;15.20;;;9.07;;
19812;SDS011;10066;48.108;11.448;2023-02-15T12:20:47;14.13;;;9.57;;
19812;SDS011;10066;48.108;11.448;2023-02-15T12:23:15;16.20;;;8.63;;
19812;SDS011;10066;48.108;11.448;2023-02-15T12:25:48;12.50;;;8.27;;
19812;SDS011;10066;48.108;11.448;2023-02-15T12:28:22;13.17;;;9.27;;
19812;SDS011;10066;48.108;11.448;2023-02-15T12:30:54;14.83;;;9.40;;
19812;SDS011;10066;48.108;11.448;2023-02-15T12:33:26;16.33;;;9.13;;
19812;SDS011;10066;48.108;11.448;2023-02-15T12:35:56;13.83;;;9.20;;
19812;SDS011;10066;48.108;11.448;2023-02-15T12:38:26;15.73;;;9.63;;
19812;SDS011;10066;48.108;11.448;2023-02-15T12:40:59;13.90;;;9.13;;
19812;SDS011;10066;48.108;11.448;2023-02-15T12:43:29;15.70;;;10.07;;
19812;SDS011;10066;48.108;11.448;2023-02-15T12:49:16;16.27;;;10.27;;
19812;SDS011;10066;48.108;11.448;2023-02-15T12:51:44;14.63;;;9.40;;
19812;SDS011;10066;48.108;11.448;2023-02-15T12:54:17;16.40;;;9.97;;
19812;SDS011;10066;48.108;11.448;2023-02-15T12:57:13;13.63;;;9.10;;
19812;SDS011;10066;48.108;11.448;2023-02-15T12:59:48;15.50;;;9.80;;
19812;SDS011;10066;48.108;11.448;2023-02-15T13:02:19;15.13;;;9.03;;
19812;SDS011;10066;48.108;11.448;2023-02-15T13:04:49;16.20;;;9.53;;
19812;SDS011;10066;48.108;11.448;2023-02-15T13:07:17;18.70;;;9.40;;
19812;SDS011;10066;48.108;11.448;2023-02-15T13:09:45;17.00;;;10.33;;
19812;SDS011;10066;48.108;11.448;2023-02-15T13:12:16;14.30;;;10.10;;
19812;SDS011;10066;48.108;11.448;2023-02-15T13:14:46;15.30;;;8.10;;
19812;SDS011;10066;48.108;11.448;2023-02-15T13:17:18;15.43;;;9.73;;
19812;SDS011;10066;48.108;11.448;2023-02-15T13:19:49;18.87;;;10.20;;
19812;SDS011;10066;48.108;11.448;2023-02-15T13:22:20;17.13;;;10.60;;
19812;SDS011;10066;48.108;11.448;2023-02-15T13:24:51;13.23;;;9.57;;
19812;SDS011;10066;48.108;11.448;2023-02-15T13:27:22;13.27;;;9.87;;
19812;SDS011;10066;48.108;11.448;2023-02-15T13:29:54;13.77;;;9.57;;
19812;SDS011;10066;48.108;11.448;2023-02-15T13:32:29;13.47;;;8.93;;
19812;SDS011;10066;48.108;11.448;2023-02-15T13:35:01;13.67;;;9.43;;
19812;SDS011;10066;48.108;11.448;2023-02-15T13:37:42;16.73;;;10.90;;
19812;SDS011;10066;48.108;11.448;2023-02-15T13:40:24;15.20;;;10.17;;
19812;SDS011;10066;48.108;11.448;2023-02-15T13:42:57;17.00;;;9.97;;
19812;SDS011;10066;48.108;11.448;2023-02-15T13:45:33;15.10;;;9.97;;
19812;SDS011;10066;48.108;11.448;2023-02-15T13:48:10;16.37;;;10.37;;
19812;SDS011;10066;48.108;11.448;2023-02-15T13:50:52;15.10;;;10.03;;
19812;SDS011;10066;48.108;11.448;2023-02-15T13:53:28;13.60;;;9.90;;
19812;SDS011;10066;48.108;11.448;2023-02-15T13:56:15;13.20;;;10.30;;
19812;SDS011;10066;48.108;11.448;2023-02-15T14:01:39;13.23;;;10.30;;
19812;SDS011;10066;48.108;11.448;2023-02-15T14:07:12;16.57;;;10.40;;
19812;SDS011;10066;48.108;11.448;2023-02-15T14:09:50;15.67;;;10.73;;
19812;SDS011;10066;48.108;11.448;2023-02-15T14:12:32;14.70;;;10.07;;
19812;SDS011;10066;48.108;11.448;2023-02-15T14:15:09;15.80;;;10.97;;
19812;SDS011;10066;48.108;11.448;2023-02-15T14:17:50;14.70;;;11.60;;
19812;SDS011;10066;48.108;11.448;2023-02-15T14:20:29;17.53;;;10.90;;
19812;SDS011;10066;48.108;11.448;2023-02-15T14:23:07;16.40;;;11.37;;
19812;SDS011;10066;48.108;11.448;2023-02-15T14:25:53;17.03;;;11.20;;
19812;SDS011;10066;48.108;11.448;2023-02-15T14:28:25;16.20;;;9.57;;
19812;SDS011;10066;48.108;11.448;2023-02-15T14:30:57;17.13;;;12.17;;
19812;SDS011;10066;48.108;11.448;2023-02-15T14:33:28;16.00;;;11.60;;
19812;SDS011;10066;48.108;11.448;2023-02-15T14:36:00;15.03;;;10.63;;
19812;SDS011;10066;48.108;11.448;2023-02-15T14:38:36;18.47;;;13.37;;
19812;SDS011;10066;48.108;11.448;2023-02-15T14:41:12;18.57;;;13.03;;
19812;SDS011;10066;48.108;11.448;2023-02-15T14:43:46;17.13;;;12.60;;
19812;SDS011;10066;48.108;11.448;2023-02-15T14:46:22;17.10;;;11.70;;
19812;SDS011;10066;48.108;11.448;2023-02-15T14:48:56;16.93;;;12.53;;
19812;SDS011;10066;48.108;11.448;2023-02-15T14:54:53;20.33;;;13.37;;
19812;SDS011;10066;48.108;11.448;2023-02-15T14:57:25;19.97;;;14.10;;
19812;SDS011;10066;48.108;11.448;2023-02-15T14:59:58;18.87;;;12.57;;
19812;SDS011;10066;48.108;11.448;2023-02-15T15:02:39;18.27;;;13.07;;
19812;SDS011;10066;48.108;11.448;2023-02-15T15:05:10;18.63;;;13.00;;